createdAt,value
2022-11-26T00:00:44.610Z,6.29
2022-11-26T00:01:44.667Z,6.35
2022-11-26T00:02:44.650Z,6.31
2022-11-26T00:03:44.680Z,6.26
2022-11-26T00:04:44.530Z,6.26
2022-11-26T00:05:44.529Z,6.25
2022-11-26T00:06:44.490Z,6.20
2022-11-26T00:07:44.610Z,6.12
2022-11-26T00:08:44.453Z,6.13
2022-11-26T00:09:44.433Z,6.15
2022-11-26T00:10:44.416Z,6.07
2022-11-26T00:11:44.392Z,6.12
2022-11-26T00:12:44.374Z,6.15
2022-11-26T00:13:44.354Z,6.10
2022-11-26T00:14:44.338Z,6.13
2022-11-26T00:15:44.317Z,6.12
2022-11-26T00:16:44.347Z,6.13
2022-11-26T00:17:44.275Z,6.19
2022-11-26T00:18:44.258Z,6.20
2022-11-26T00:19:44.260Z,6.20
2022-11-26T00:20:44.217Z,6.22
2022-11-26T00:21:44.199Z,6.26
2022-11-26T00:22:44.177Z,6.29
2022-11-26T00:23:44.162Z,6.34
2022-11-26T00:24:44.144Z,6.39
2022-11-26T00:25:44.119Z,6.34
2022-11-26T00:26:44.100Z,6.39
2022-11-26T00:27:44.079Z,6.39
2022-11-26T00:28:44.061Z,6.44
2022-11-26T00:29:44.038Z,6.53
2022-11-26T00:30:44.021Z,6.52
2022-11-26T00:31:44.086Z,6.59
2022-11-26T00:32:43.984Z,6.52
2022-11-26T00:33:43.961Z,6.57
2022-11-26T00:34:43.944Z,6.54
2022-11-26T00:35:43.924Z,6.53
2022-11-26T00:36:43.904Z,6.59
2022-11-26T00:37:43.884Z,6.54
2022-11-26T00:38:43.866Z,6.53
2022-11-26T00:39:43.849Z,6.54
2022-11-26T00:40:43.826Z,6.54
2022-11-26T00:41:43.805Z,6.47
2022-11-26T00:42:43.789Z,6.57
2022-11-26T00:43:43.771Z,6.53
2022-11-26T00:44:43.751Z,6.60
2022-11-26T00:45:43.796Z,6.67
2022-11-26T00:46:43.709Z,6.49
2022-11-26T00:47:43.687Z,6.59
2022-11-26T00:48:43.671Z,6.60
2022-11-26T00:49:43.654Z,6.65
2022-11-26T00:50:43.630Z,6.74
2022-11-26T00:51:43.612Z,6.74
2022-11-26T00:52:43.590Z,6.78
2022-11-26T00:53:43.572Z,6.70
2022-11-26T00:54:43.563Z,6.82
2022-11-26T00:55:43.534Z,6.77
2022-11-26T00:56:43.514Z,6.78
2022-11-26T00:57:43.494Z,6.86
2022-11-26T00:58:43.480Z,6.87
2022-11-26T00:59:43.456Z,6.83
2022-11-26T01:00:43.509Z,6.89
2022-11-26T01:01:43.420Z,7.00
2022-11-26T01:02:43.451Z,6.96
2022-11-26T01:03:43.377Z,6.93
2022-11-26T01:04:43.359Z,6.89
2022-11-26T01:05:43.338Z,7.03
2022-11-26T01:06:43.320Z,7.03
2022-11-26T01:07:51.155Z,6.97
2022-11-26T01:08:51.013Z,7.00
2022-11-26T01:10:47.277Z,7.00
2022-11-26T01:11:52.408Z,7.04
2022-11-26T01:13:51.164Z,7.04
2022-11-26T01:14:51.138Z,7.07
2022-11-26T01:16:55.193Z,7.11
2022-11-26T01:17:55.063Z,7.08
2022-11-26T01:19:59.022Z,7.15
2022-11-26T01:20:58.994Z,7.18
2022-11-26T01:23:03.015Z,7.13
2022-11-26T01:24:02.921Z,7.22
2022-11-26T01:26:06.887Z,7.22
2022-11-26T01:27:06.828Z,7.13
2022-11-26T01:28:59.717Z,7.19
2022-11-26T01:29:59.693Z,7.10
2022-11-26T01:32:03.695Z,7.13
2022-11-26T01:33:03.621Z,7.21
2022-11-26T01:35:07.555Z,7.15
2022-11-26T01:36:07.531Z,7.18
2022-11-26T01:38:11.484Z,7.22
2022-11-26T01:39:11.444Z,7.03
2022-11-26T01:41:15.410Z,7.18
2022-11-26T01:42:15.370Z,7.18
2022-11-26T01:44:19.325Z,7.03
2022-11-26T01:45:19.286Z,7.01
2022-11-26T01:47:23.271Z,7.18
2022-11-26T01:48:23.211Z,7.05
2022-11-26T01:50:27.160Z,7.13
2022-11-26T01:51:27.136Z,7.00
2022-11-26T01:53:31.095Z,7.07
2022-11-26T01:54:31.059Z,7.07
2022-11-26T01:56:35.035Z,7.00
2022-11-26T01:57:34.994Z,7.11
2022-11-26T01:59:27.871Z,7.05
2022-11-26T02:00:27.848Z,7.04
2022-11-26T02:02:32.001Z,7.04
2022-11-26T02:03:31.904Z,7.05
2022-11-26T02:05:35.830Z,7.01
2022-11-26T02:06:35.802Z,7.04
2022-11-26T02:08:39.773Z,7.04
2022-11-26T02:09:39.727Z,7.10
2022-11-26T02:11:43.697Z,7.05
2022-11-26T02:12:43.659Z,7.05
2022-11-26T02:14:47.613Z,7.11
2022-11-26T02:15:47.585Z,7.10
2022-11-26T02:17:51.582Z,6.96
2022-11-26T02:18:51.513Z,7.07
2022-11-26T02:20:55.471Z,7.03
2022-11-26T02:21:55.447Z,7.10
2022-11-26T02:23:59.419Z,7.10
2022-11-26T02:24:59.376Z,7.04
2022-11-26T02:27:03.343Z,7.01
2022-11-26T02:28:03.305Z,7.08
2022-11-26T02:30:07.260Z,7.01
2022-11-26T02:31:07.233Z,7.07
2022-11-26T02:33:11.204Z,7.01
2022-11-26T02:34:11.163Z,7.10
2022-11-26T02:36:15.106Z,7.05
2022-11-26T02:37:15.599Z,7.05
2022-11-26T02:39:07.980Z,7.10
2022-11-26T02:40:07.945Z,7.01
2022-11-26T02:42:11.889Z,7.08
2022-11-26T02:43:11.857Z,7.07
2022-11-26T02:45:15.809Z,7.07
2022-11-26T02:46:15.818Z,7.08
2022-11-26T02:48:19.762Z,7.11
2022-11-26T02:49:19.759Z,7.05
2022-11-26T02:51:23.677Z,7.05
2022-11-26T02:52:23.646Z,7.11
2022-11-26T02:54:27.616Z,7.07
2022-11-26T02:55:27.581Z,7.05
2022-11-26T02:57:31.546Z,7.01
2022-11-26T02:58:31.507Z,7.01
2022-11-26T03:00:35.465Z,7.03
2022-11-26T03:01:35.549Z,7.03
2022-11-26T03:03:39.478Z,7.03
2022-11-26T03:04:39.708Z,7.10
2022-11-26T03:06:43.319Z,7.08
2022-11-26T03:07:43.394Z,7.05
2022-11-26T03:09:36.179Z,7.10
2022-11-26T03:10:36.140Z,7.08
2022-11-26T03:12:40.108Z,6.96
2022-11-26T03:13:40.069Z,7.03
2022-11-26T03:15:44.011Z,7.00
2022-11-26T03:16:44.012Z,7.03
2022-11-26T03:18:47.948Z,7.05
2022-11-26T03:19:47.903Z,7.01
2022-11-26T03:21:51.870Z,7.11
2022-11-26T03:22:51.825Z,7.15
2022-11-26T03:24:55.779Z,7.04
2022-11-26T03:25:55.738Z,7.04
2022-11-26T03:27:59.718Z,7.05
2022-11-26T03:28:59.665Z,7.03
2022-11-26T03:29:59.644Z,7.08
2022-11-26T03:30:59.627Z,7.07
2022-11-26T03:31:59.653Z,7.07
2022-11-26T03:32:59.589Z,7.05
2022-11-26T03:33:59.576Z,7.08
2022-11-26T03:34:59.549Z,7.01
2022-11-26T03:35:59.530Z,7.07
2022-11-26T03:36:59.512Z,7.07
2022-11-26T03:37:59.490Z,7.11
2022-11-26T03:38:59.473Z,7.05
2022-11-26T03:39:59.459Z,7.04
2022-11-26T03:40:59.435Z,7.11
2022-11-26T03:41:59.412Z,7.03
2022-11-26T03:42:59.400Z,7.07
2022-11-26T03:43:59.377Z,7.13
2022-11-26T03:44:59.357Z,7.10
2022-11-26T03:45:59.379Z,7.04
2022-11-26T03:46:59.318Z,7.05
2022-11-26T03:47:59.325Z,7.08
2022-11-26T03:48:59.283Z,7.07
2022-11-26T03:49:59.260Z,7.08
2022-11-26T03:50:59.243Z,7.04
2022-11-26T03:51:59.224Z,7.05
2022-11-26T03:52:59.214Z,7.05
2022-11-26T03:53:59.197Z,7.03
2022-11-26T03:54:59.167Z,7.08
2022-11-26T03:55:59.148Z,7.03
2022-11-26T03:56:59.133Z,7.03
2022-11-26T03:57:59.106Z,7.03
2022-11-26T03:58:59.088Z,7.08
2022-11-26T03:59:59.072Z,7.08
2022-11-26T04:00:59.092Z,7.01
2022-11-26T04:01:59.033Z,7.05
2022-11-26T04:02:59.099Z,7.05
2022-11-26T04:03:58.993Z,7.04
2022-11-26T04:04:58.975Z,7.04
2022-11-26T04:05:58.955Z,6.95
2022-11-26T04:06:58.947Z,6.97
2022-11-26T04:07:58.915Z,6.93
2022-11-26T04:08:58.897Z,6.93
2022-11-26T04:09:58.885Z,6.89
2022-11-26T04:10:58.862Z,6.92
2022-11-26T04:11:58.844Z,6.90
2022-11-26T04:12:58.822Z,6.77
2022-11-26T04:13:58.808Z,6.70
2022-11-26T04:14:58.792Z,6.75
2022-11-26T04:15:58.770Z,6.75
2022-11-26T04:16:58.780Z,6.78
2022-11-26T04:17:58.723Z,6.62
2022-11-26T04:18:58.703Z,6.60
2022-11-26T04:19:58.682Z,6.60
2022-11-26T04:20:58.669Z,6.59
2022-11-26T04:21:58.647Z,6.52
2022-11-26T04:22:58.628Z,6.49
2022-11-26T04:23:58.604Z,6.44
2022-11-26T04:24:58.591Z,6.43
2022-11-26T04:25:58.569Z,6.41
2022-11-26T04:26:58.547Z,6.34
2022-11-26T04:27:58.530Z,6.28
2022-11-26T04:28:58.516Z,6.26
2022-11-26T04:29:58.494Z,6.31
2022-11-26T04:30:58.470Z,6.19
2022-11-26T04:31:58.479Z,6.26
2022-11-26T04:32:58.432Z,6.16
2022-11-26T04:33:58.413Z,6.17
2022-11-26T04:34:58.392Z,6.17
2022-11-26T04:35:58.370Z,6.19
2022-11-26T04:36:58.353Z,6.15
2022-11-26T04:37:58.334Z,6.05
2022-11-26T04:38:58.311Z,6.01
2022-11-26T04:39:58.290Z,6.01
2022-11-26T04:40:58.273Z,5.99
2022-11-26T04:41:58.250Z,5.94
2022-11-26T04:42:58.233Z,5.98
2022-11-26T04:43:58.217Z,5.94
2022-11-26T04:44:58.194Z,5.84
2022-11-26T04:45:58.204Z,5.90
2022-11-26T04:46:58.153Z,5.80
2022-11-26T04:47:58.134Z,5.74
2022-11-26T04:48:58.121Z,5.77
2022-11-26T04:49:58.099Z,5.72
2022-11-26T04:50:58.077Z,5.74
2022-11-26T04:51:58.059Z,5.73
2022-11-26T04:52:58.040Z,5.69
2022-11-26T04:54:02.558Z,5.59
2022-11-26T04:54:57.997Z,5.61
2022-11-26T04:55:57.975Z,5.49
2022-11-26T04:56:57.961Z,5.55
2022-11-26T04:57:57.934Z,5.49
2022-11-26T04:58:57.918Z,5.36
2022-11-26T04:59:57.905Z,5.43
2022-11-26T05:00:57.893Z,5.46
2022-11-26T05:01:57.855Z,5.29
2022-11-26T05:02:57.904Z,5.26
2022-11-26T05:03:57.819Z,5.23
2022-11-26T05:04:57.797Z,5.22
2022-11-26T05:05:57.774Z,5.23
2022-11-26T05:06:57.761Z,5.20
2022-11-26T05:07:57.800Z,5.33
2022-11-26T05:08:57.717Z,5.22
2022-11-26T05:09:57.701Z,5.33
2022-11-26T05:10:57.675Z,5.34
2022-11-26T05:11:57.656Z,5.41
2022-11-26T05:12:57.638Z,5.41
2022-11-26T05:13:57.617Z,5.41
2022-11-26T05:14:57.598Z,5.37
2022-11-26T05:15:57.579Z,5.44
2022-11-26T05:16:57.618Z,5.54
2022-11-26T05:17:57.536Z,5.52
2022-11-26T05:18:58.435Z,5.52
2022-11-26T05:19:57.507Z,5.54
2022-11-26T05:20:57.482Z,5.55
2022-11-26T05:21:57.468Z,5.54
2022-11-26T05:22:57.437Z,5.56
2022-11-26T05:23:57.416Z,5.62
2022-11-26T05:24:57.396Z,5.61
2022-11-26T05:25:57.375Z,5.52
2022-11-26T05:26:57.558Z,5.47
2022-11-26T05:27:57.334Z,5.54
2022-11-26T05:28:57.316Z,5.51
2022-11-26T05:29:57.294Z,5.54
2022-11-26T05:30:57.277Z,5.56
2022-11-26T05:31:57.313Z,5.54
2022-11-26T05:32:57.238Z,5.49
2022-11-26T05:33:57.215Z,5.46
2022-11-26T05:35:00.191Z,5.51
2022-11-26T05:35:57.230Z,5.47
2022-11-26T05:36:57.221Z,5.55
2022-11-26T05:37:57.133Z,5.55
2022-11-26T05:38:57.116Z,5.55
2022-11-26T05:39:57.096Z,5.52
2022-11-26T05:40:57.075Z,5.43
2022-11-26T05:41:57.056Z,5.41
2022-11-26T05:42:57.037Z,5.52
2022-11-26T05:43:57.016Z,5.54
2022-11-26T05:44:56.994Z,5.44
2022-11-26T05:45:57.031Z,5.51
2022-11-26T05:46:56.955Z,5.47
2022-11-26T05:47:56.935Z,5.41
2022-11-26T05:48:56.915Z,5.36
2022-11-26T05:49:56.898Z,5.41
2022-11-26T05:50:56.874Z,5.36
2022-11-26T05:51:56.857Z,5.44
2022-11-26T05:52:56.833Z,5.36
2022-11-26T05:53:56.812Z,5.41
2022-11-26T05:54:56.795Z,5.40
2022-11-26T05:55:56.775Z,5.44
2022-11-26T05:57:00.063Z,5.40
2022-11-26T05:57:56.733Z,5.44
2022-11-26T05:58:56.717Z,5.46
2022-11-26T05:59:56.692Z,5.43
2022-11-26T06:00:56.673Z,5.41
2022-11-26T06:01:56.710Z,5.41
2022-11-26T06:02:56.710Z,5.43
2022-11-26T06:03:56.686Z,5.41
2022-11-26T06:04:56.588Z,5.40
2022-11-26T06:05:56.574Z,5.41
2022-11-26T06:06:56.556Z,5.41
2022-11-26T06:07:56.565Z,5.41
2022-11-26T06:08:56.508Z,5.36
2022-11-26T06:09:56.490Z,5.33
2022-11-26T06:10:56.473Z,5.31
2022-11-26T06:11:56.453Z,5.28
2022-11-26T06:12:56.431Z,5.34
2022-11-26T06:13:56.412Z,5.34
2022-11-26T06:14:56.390Z,5.34
2022-11-26T06:15:56.371Z,5.36
2022-11-26T06:16:56.388Z,5.40
2022-11-26T06:17:56.329Z,5.34
2022-11-26T06:18:56.309Z,5.36
2022-11-26T06:19:56.291Z,5.29
2022-11-26T06:20:56.267Z,5.22
2022-11-26T06:21:56.247Z,5.26
2022-11-26T06:22:56.234Z,5.22
2022-11-26T06:23:59.616Z,5.18
2022-11-26T06:24:56.185Z,5.15
2022-11-26T06:25:56.166Z,5.19
2022-11-26T06:26:56.151Z,5.18
2022-11-26T06:27:56.127Z,5.07
2022-11-26T06:28:56.108Z,5.08
2022-11-26T06:29:56.090Z,5.12
2022-11-26T06:30:56.064Z,5.04
2022-11-26T06:31:56.079Z,5.08
2022-11-26T06:32:56.026Z,5.07
2022-11-26T06:33:56.008Z,5.00
2022-11-26T06:34:55.989Z,4.98
2022-11-26T06:35:55.967Z,5.01
2022-11-26T06:36:55.947Z,4.94
2022-11-26T06:37:55.941Z,4.92
2022-11-26T06:38:55.904Z,4.87
2022-11-26T06:39:55.882Z,4.86
2022-11-26T06:40:55.864Z,4.89
2022-11-26T06:41:55.842Z,4.79
2022-11-26T06:42:55.830Z,4.79
2022-11-26T06:43:55.800Z,4.75
2022-11-26T06:44:59.588Z,4.79
2022-11-26T06:45:55.853Z,4.79
2022-11-26T06:46:55.740Z,4.79
2022-11-26T06:47:55.725Z,4.78
2022-11-26T06:48:55.700Z,4.75
2022-11-26T06:49:55.681Z,4.70
2022-11-26T06:50:55.660Z,4.71
2022-11-26T06:51:55.647Z,4.70
2022-11-26T06:52:55.621Z,4.68
2022-11-26T06:53:55.599Z,4.67
2022-11-26T06:54:55.581Z,4.67
2022-11-26T06:55:55.558Z,4.63
2022-11-26T06:56:55.541Z,4.63
2022-11-26T06:57:55.520Z,4.63
2022-11-26T06:58:55.497Z,4.68
2022-11-26T06:59:55.477Z,4.66
2022-11-26T07:00:55.500Z,4.66
2022-11-26T07:01:55.588Z,4.61
2022-11-26T07:02:55.449Z,4.61
2022-11-26T07:03:55.400Z,4.53
2022-11-26T07:04:55.372Z,4.52
2022-11-26T07:05:55.354Z,4.53
2022-11-26T07:06:55.335Z,4.49
2022-11-26T07:07:55.381Z,4.50
2022-11-26T07:09:02.489Z,4.52
2022-11-26T07:10:59.253Z,4.53
2022-11-26T07:11:59.216Z,4.56
2022-11-26T07:14:03.161Z,4.58
2022-11-26T07:15:03.137Z,4.48
2022-11-26T07:17:07.098Z,4.56
2022-11-26T07:18:07.059Z,4.48
2022-11-26T07:19:59.959Z,4.45
2022-11-26T07:20:59.908Z,4.43
2022-11-26T07:23:03.848Z,4.50
2022-11-26T07:24:03.819Z,4.48
2022-11-26T07:26:07.780Z,4.53
2022-11-26T07:27:07.740Z,4.61
2022-11-26T07:29:11.697Z,4.49
2022-11-26T07:30:11.672Z,4.60
2022-11-26T07:31:16.255Z,4.58
2022-11-26T07:32:11.618Z,4.53
2022-11-26T07:33:11.600Z,4.52
2022-11-26T07:34:11.588Z,4.52
2022-11-26T07:35:11.559Z,4.52
2022-11-26T07:36:11.538Z,4.61
2022-11-26T07:37:11.518Z,4.56
2022-11-26T07:38:11.500Z,4.57
2022-11-26T07:39:11.476Z,4.57
2022-11-26T07:40:11.466Z,4.63
2022-11-26T07:41:11.436Z,4.60
2022-11-26T07:42:11.415Z,4.67
2022-11-26T07:43:11.397Z,4.64
2022-11-26T07:44:11.377Z,4.64
2022-11-26T07:45:11.357Z,4.67
2022-11-26T07:46:11.466Z,4.67
2022-11-26T07:47:11.316Z,4.68
2022-11-26T07:48:16.567Z,4.74
2022-11-26T07:49:11.275Z,4.78
2022-11-26T07:50:11.267Z,4.82
2022-11-26T07:51:11.237Z,4.83
2022-11-26T07:52:11.211Z,4.78
2022-11-26T07:53:11.195Z,4.84
2022-11-26T07:54:11.177Z,4.87
2022-11-26T07:55:12.807Z,4.87
2022-11-26T07:56:11.133Z,4.94
2022-11-26T07:57:11.112Z,4.90
2022-11-26T07:58:11.090Z,5.00
2022-11-26T07:59:11.070Z,4.95
2022-11-26T08:00:11.051Z,4.97
2022-11-26T08:01:11.064Z,5.08
2022-11-26T08:02:11.051Z,5.07
2022-11-26T08:03:10.993Z,5.04
2022-11-26T08:04:10.971Z,5.15
2022-11-26T08:05:10.951Z,5.18
2022-11-26T08:06:10.933Z,5.25
2022-11-26T08:07:12.039Z,5.28
2022-11-26T08:08:10.925Z,5.31
2022-11-26T08:09:10.870Z,5.36
2022-11-26T08:10:10.860Z,5.41
2022-11-26T08:11:10.833Z,5.52
2022-11-26T08:12:10.811Z,5.61
2022-11-26T08:13:10.787Z,5.70
2022-11-26T08:14:10.772Z,5.70
2022-11-26T08:15:10.752Z,5.76
2022-11-26T08:16:10.787Z,5.87
2022-11-26T08:17:10.710Z,5.94
2022-11-26T08:18:10.692Z,5.92
2022-11-26T08:19:10.665Z,5.99
2022-11-26T08:20:10.656Z,6.13
2022-11-26T08:21:10.634Z,6.17
2022-11-26T08:22:10.611Z,6.29
2022-11-26T08:23:10.592Z,6.32
2022-11-26T08:24:10.571Z,6.36
2022-11-26T08:25:10.549Z,6.49
2022-11-26T08:26:42.440Z,6.57
2022-11-26T08:27:10.519Z,6.60
2022-11-26T08:28:10.495Z,6.78
2022-11-26T08:29:10.471Z,6.85
2022-11-26T08:30:10.452Z,6.87
2022-11-26T08:31:10.454Z,6.95
2022-11-26T08:32:10.415Z,7.05
2022-11-26T08:33:10.395Z,7.01
2022-11-26T08:34:10.374Z,7.22
2022-11-26T08:35:10.354Z,7.26
2022-11-26T08:36:10.336Z,7.43
2022-11-26T08:37:10.315Z,7.50
2022-11-26T08:38:10.297Z,7.59
2022-11-26T08:39:10.278Z,7.67
2022-11-26T08:40:12.776Z,7.75
2022-11-26T08:41:10.237Z,7.80
2022-11-26T08:42:10.223Z,7.91
2022-11-26T08:43:10.198Z,7.96
2022-11-26T08:44:10.203Z,8.11
2022-11-26T08:45:10.162Z,8.14
2022-11-26T08:46:10.200Z,8.18
2022-11-26T08:47:10.139Z,8.23
2022-11-26T08:48:10.107Z,8.31
2022-11-26T08:49:10.090Z,8.36
2022-11-26T08:50:10.072Z,8.42
2022-11-26T08:51:10.049Z,8.56
2022-11-26T08:52:10.030Z,8.66
2022-11-26T08:53:10.014Z,8.77
2022-11-26T08:54:10.005Z,8.81
2022-11-26T08:55:09.974Z,8.87
2022-11-26T08:56:09.959Z,8.97
2022-11-26T08:57:09.935Z,9.05
2022-11-26T08:58:09.929Z,9.09
2022-11-26T08:59:09.899Z,9.27
2022-11-26T09:00:09.881Z,9.33
2022-11-26T09:01:09.958Z,9.31
2022-11-26T09:02:10.082Z,9.44
2022-11-26T09:03:09.867Z,9.54
2022-11-26T09:04:09.814Z,9.55
2022-11-26T09:05:09.790Z,9.73
2022-11-26T09:06:09.776Z,9.70
2022-11-26T09:07:09.799Z,9.81
2022-11-26T09:08:09.739Z,9.97
2022-11-26T09:09:09.723Z,10.07
2022-11-26T09:10:09.700Z,10.17
2022-11-26T09:11:09.709Z,10.21
2022-11-26T09:12:09.671Z,10.25
2022-11-26T09:13:09.649Z,10.27
2022-11-26T09:14:09.632Z,10.39
2022-11-26T09:15:09.707Z,10.45
2022-11-26T09:16:09.639Z,10.43
2022-11-26T09:17:09.577Z,10.59
2022-11-26T09:18:09.579Z,10.61
2022-11-26T09:19:09.543Z,10.67
2022-11-26T09:20:09.525Z,10.71
2022-11-26T09:21:09.510Z,10.72
2022-11-26T09:22:09.495Z,10.86
2022-11-26T09:23:09.481Z,10.92
2022-11-26T09:24:09.459Z,11.04
2022-11-26T09:25:09.438Z,11.10
2022-11-26T09:26:09.421Z,11.25
2022-11-26T09:27:09.442Z,11.43
2022-11-26T09:28:09.395Z,11.38
2022-11-26T09:29:09.371Z,11.60
2022-11-26T09:30:09.359Z,11.67
2022-11-26T09:31:09.336Z,11.65
2022-11-26T09:32:25.027Z,11.86
2022-11-26T09:33:09.306Z,11.86
2022-11-26T09:34:09.287Z,11.99
2022-11-26T09:35:09.267Z,12.02
2022-11-26T09:36:09.254Z,12.05
2022-11-26T09:37:09.237Z,12.12
2022-11-26T09:38:09.220Z,12.18
2022-11-26T09:39:09.203Z,12.35
2022-11-26T09:40:09.192Z,12.39
2022-11-26T09:41:09.172Z,12.39
2022-11-26T09:42:09.154Z,12.45
2022-11-26T09:43:09.136Z,12.53
2022-11-26T09:44:09.122Z,12.48
2022-11-26T09:45:09.101Z,12.61
2022-11-26T09:46:09.185Z,12.61
2022-11-26T09:47:13.266Z,12.78
2022-11-26T09:48:09.054Z,12.86
2022-11-26T09:49:09.037Z,12.81
2022-11-26T09:50:09.024Z,12.84
2022-11-26T09:51:09.004Z,12.87
2022-11-26T09:52:09.001Z,12.76
2022-11-26T09:53:08.975Z,12.83
2022-11-26T09:54:08.957Z,12.87
2022-11-26T09:55:08.942Z,12.94
2022-11-26T09:56:08.930Z,13.06
2022-11-26T09:57:08.909Z,13.19
2022-11-26T09:58:08.895Z,13.36
2022-11-26T09:59:08.875Z,13.45
2022-11-26T10:00:08.859Z,13.52
2022-11-26T10:01:08.882Z,13.58
2022-11-26T10:02:08.890Z,13.65
2022-11-26T10:03:08.814Z,13.65
2022-11-26T10:04:08.801Z,13.71
2022-11-26T10:05:08.783Z,13.95
2022-11-26T10:06:08.772Z,14.00
2022-11-26T10:07:08.815Z,13.95
2022-11-26T10:08:08.741Z,14.07
2022-11-26T10:09:08.721Z,14.08
2022-11-26T10:10:08.707Z,14.13
2022-11-26T10:11:08.683Z,14.08
2022-11-26T10:12:10.990Z,14.16
2022-11-26T10:13:19.001Z,14.18
2022-11-26T10:14:08.640Z,14.36
2022-11-26T10:15:08.623Z,14.36
2022-11-26T10:16:08.654Z,14.40
2022-11-26T10:17:08.592Z,14.51
2022-11-26T10:18:08.580Z,14.51
2022-11-26T10:19:08.563Z,14.63
2022-11-26T10:20:08.558Z,14.71
2022-11-26T10:21:08.534Z,14.74
2022-11-26T10:22:08.518Z,14.68
2022-11-26T10:23:08.501Z,14.74
2022-11-26T10:24:08.492Z,14.85
2022-11-26T10:25:08.473Z,14.94
2022-11-26T10:26:08.457Z,14.99
2022-11-26T10:27:08.440Z,15.07
2022-11-26T10:28:08.427Z,15.15
2022-11-26T10:29:08.409Z,15.18
2022-11-26T10:30:08.400Z,15.18
2022-11-26T10:31:08.402Z,15.18
2022-11-26T10:32:08.367Z,15.17
2022-11-26T10:33:08.356Z,15.25
2022-11-26T10:34:08.366Z,15.30
2022-11-26T10:35:08.324Z,15.32
2022-11-26T10:36:08.310Z,15.37
2022-11-26T10:37:08.293Z,15.65
2022-11-26T10:38:08.280Z,15.72
2022-11-26T10:39:08.262Z,15.72
2022-11-26T10:40:08.247Z,15.72
2022-11-26T10:41:08.231Z,15.67
2022-11-26T10:42:08.220Z,15.69
2022-11-26T10:43:08.210Z,15.66
2022-11-26T10:44:08.189Z,15.63
2022-11-26T10:45:11.039Z,15.51
2022-11-26T10:46:08.303Z,15.43
2022-11-26T10:47:08.145Z,15.44
2022-11-26T10:48:08.132Z,15.35
2022-11-26T10:49:08.121Z,15.35
2022-11-26T10:50:31.903Z,15.30
2022-11-26T10:51:08.086Z,15.39
2022-11-26T10:52:08.072Z,15.41
2022-11-26T10:53:08.063Z,15.47
2022-11-26T10:54:08.043Z,15.52
2022-11-26T10:55:08.028Z,15.62
2022-11-26T10:56:08.020Z,15.73
2022-11-26T10:57:08.004Z,15.90
2022-11-26T10:58:07.988Z,15.84
2022-11-26T10:59:07.968Z,15.88
2022-11-26T11:00:07.954Z,15.96
2022-11-26T11:01:07.994Z,16.06
2022-11-26T11:02:07.948Z,16.06
2022-11-26T11:03:07.911Z,16.22
2022-11-26T11:04:08.972Z,16.22
2022-11-26T11:05:07.880Z,16.29
2022-11-26T11:06:07.885Z,16.54
2022-11-26T11:07:11.882Z,16.64
2022-11-26T11:08:07.839Z,16.84
2022-11-26T11:09:07.828Z,17.13
2022-11-26T11:10:07.810Z,17.09
2022-11-26T11:11:07.795Z,17.22
2022-11-26T11:12:07.784Z,17.30
2022-11-26T11:13:07.768Z,17.44
2022-11-26T11:14:07.757Z,17.49
2022-11-26T11:15:07.743Z,17.39
2022-11-26T11:16:07.768Z,17.41
2022-11-26T11:17:07.726Z,17.47
2022-11-26T11:18:07.705Z,17.44
2022-11-26T11:19:07.688Z,17.53
2022-11-26T11:20:07.685Z,17.56
2022-11-26T11:21:07.657Z,17.41
2022-11-26T11:22:07.646Z,17.20
2022-11-26T11:23:07.634Z,17.09
2022-11-26T11:24:09.081Z,17.04
2022-11-26T11:25:07.601Z,16.86
2022-11-26T11:26:07.591Z,16.79
2022-11-26T11:27:07.581Z,16.61
2022-11-26T11:28:11.971Z,16.44
2022-11-26T11:29:07.547Z,16.22
2022-11-26T11:30:07.535Z,16.00
2022-11-26T11:31:07.591Z,15.81
2022-11-26T11:32:07.505Z,15.60
2022-11-26T11:33:07.494Z,15.47
2022-11-26T11:34:07.486Z,15.35
2022-11-26T11:35:07.462Z,15.37
2022-11-26T11:36:07.449Z,15.39
2022-11-26T11:37:10.541Z,15.39
2022-11-26T11:38:07.424Z,15.60
2022-11-26T11:39:07.408Z,15.60
2022-11-26T11:40:07.406Z,15.66
2022-11-26T11:41:07.375Z,15.81
2022-11-26T11:42:07.364Z,15.76
2022-11-26T11:43:07.352Z,15.76
2022-11-26T11:44:07.337Z,15.60
2022-11-26T11:45:07.317Z,15.44
2022-11-26T11:46:07.334Z,15.33
2022-11-26T11:47:07.290Z,15.17
2022-11-26T11:48:07.277Z,15.05
2022-11-26T11:49:07.265Z,14.89
2022-11-26T11:50:07.251Z,14.70
2022-11-26T11:51:07.233Z,14.36
2022-11-26T11:52:07.221Z,14.07
2022-11-26T11:53:07.203Z,13.83
2022-11-26T11:54:07.204Z,13.67
2022-11-26T11:55:07.178Z,13.46
2022-11-26T11:56:07.162Z,13.16
2022-11-26T11:57:07.145Z,13.02
2022-11-26T11:58:07.136Z,12.86
2022-11-26T11:59:07.121Z,12.70
2022-11-26T12:00:07.111Z,12.58
2022-11-26T12:01:07.085Z,12.51
2022-11-26T12:02:07.110Z,12.32
2022-11-26T12:03:09.400Z,12.18
2022-11-26T12:04:09.217Z,12.07
2022-11-26T12:05:07.110Z,12.11
2022-11-26T12:06:07.014Z,11.95
2022-11-26T12:07:06.996Z,11.88
2022-11-26T12:08:06.983Z,11.70
2022-11-26T12:09:06.965Z,11.63
2022-11-26T12:10:07.007Z,11.63
2022-11-26T12:11:06.929Z,11.48
2022-11-26T12:12:06.916Z,11.49
2022-11-26T12:13:06.905Z,11.44
2022-11-26T12:14:06.894Z,11.38
2022-11-26T12:15:06.869Z,11.38
2022-11-26T12:16:06.884Z,11.35
2022-11-26T12:17:06.873Z,11.25
2022-11-26T12:18:06.817Z,11.16
2022-11-26T12:19:06.801Z,11.08
2022-11-26T12:20:06.789Z,11.02
2022-11-26T12:21:06.773Z,10.90
2022-11-26T12:22:06.759Z,10.84
2022-11-26T12:23:11.493Z,10.84
2022-11-26T12:24:06.719Z,10.80
2022-11-26T12:25:06.705Z,10.75
2022-11-26T12:26:06.688Z,10.69
2022-11-26T12:27:06.711Z,10.59
2022-11-26T12:28:06.664Z,10.62
2022-11-26T12:29:06.639Z,10.57
2022-11-26T12:30:06.626Z,10.41
2022-11-26T12:31:06.610Z,10.42
2022-11-26T12:32:06.659Z,10.43
2022-11-26T12:33:06.571Z,10.33
2022-11-26T12:34:08.742Z,10.28
2022-11-26T12:35:06.546Z,10.27
2022-11-26T12:36:06.522Z,10.25
2022-11-26T12:37:06.507Z,10.18
2022-11-26T12:38:06.485Z,10.12
2022-11-26T12:39:06.471Z,10.15
2022-11-26T12:40:06.454Z,10.17
2022-11-26T12:41:06.441Z,10.12
2022-11-26T12:42:06.418Z,10.15
2022-11-26T12:43:06.403Z,10.00
2022-11-26T12:44:06.382Z,10.17
2022-11-26T12:45:07.435Z,10.17
2022-11-26T12:46:06.433Z,10.00
2022-11-26T12:47:06.332Z,10.03
2022-11-26T12:48:06.315Z,10.06
2022-11-26T12:49:07.224Z,9.95
2022-11-26T12:50:07.207Z,9.99
2022-11-26T12:51:06.262Z,9.92
2022-11-26T12:52:06.246Z,9.90
2022-11-26T12:53:06.231Z,9.91
2022-11-26T12:54:06.210Z,9.87
2022-11-26T12:55:06.197Z,9.82
2022-11-26T12:56:06.177Z,9.67
2022-11-26T12:57:06.162Z,9.72
2022-11-26T12:58:06.147Z,9.76
2022-11-26T12:59:06.141Z,9.59
2022-11-26T13:00:06.104Z,9.55
2022-11-26T13:01:06.146Z,9.58
2022-11-26T13:02:06.189Z,9.45
2022-11-26T13:03:06.059Z,9.40
2022-11-26T13:04:36.106Z,9.36
2022-11-26T13:05:06.021Z,9.31
2022-11-26T13:06:06.006Z,9.34
2022-11-26T13:07:05.987Z,9.30
2022-11-26T13:08:05.971Z,9.29
2022-11-26T13:09:06.044Z,9.29
2022-11-26T13:10:05.938Z,9.24
2022-11-26T13:11:08.886Z,9.26
2022-11-26T13:12:05.893Z,9.27
2022-11-26T13:13:05.881Z,9.26
2022-11-26T13:14:05.870Z,9.26
2022-11-26T13:15:05.871Z,9.24
2022-11-26T13:16:05.856Z,9.21
2022-11-26T13:17:05.812Z,9.16
2022-11-26T13:18:05.794Z,9.11
2022-11-26T13:19:06.988Z,9.05
2022-11-26T13:20:05.769Z,8.99
2022-11-26T13:21:05.738Z,9.02
2022-11-26T13:22:05.731Z,8.95
2022-11-26T13:23:05.729Z,8.92
2022-11-26T13:24:05.686Z,8.90
2022-11-26T13:25:05.673Z,8.90
2022-11-26T13:26:05.653Z,8.90
2022-11-26T13:27:05.633Z,8.84
2022-11-26T13:28:05.634Z,8.86
2022-11-26T13:29:05.592Z,8.79
2022-11-26T13:30:05.589Z,8.78
2022-11-26T13:31:05.587Z,8.72
2022-11-26T13:32:11.364Z,8.66
2022-11-26T13:33:05.528Z,8.64
2022-11-26T13:34:05.508Z,8.56
2022-11-26T13:35:05.489Z,8.53
2022-11-26T13:36:05.468Z,8.56
2022-11-26T13:37:05.476Z,8.56
2022-11-26T13:38:05.432Z,8.44
2022-11-26T13:39:05.427Z,8.46
2022-11-26T13:40:05.413Z,8.38
2022-11-26T13:41:05.383Z,8.39
2022-11-26T13:42:05.366Z,8.38
2022-11-26T13:43:05.346Z,8.23
2022-11-26T13:44:05.327Z,8.28
2022-11-26T13:45:05.358Z,8.27
2022-11-26T13:46:05.376Z,8.27
2022-11-26T13:47:05.278Z,8.35
2022-11-26T13:48:05.254Z,8.28
2022-11-26T13:49:05.242Z,8.20
2022-11-26T13:50:05.230Z,8.20
2022-11-26T13:51:05.205Z,8.27
2022-11-26T13:52:05.180Z,8.13
2022-11-26T13:53:05.163Z,8.24
2022-11-26T13:54:05.144Z,8.20
2022-11-26T13:55:05.128Z,8.23
2022-11-26T13:56:05.111Z,8.18
2022-11-26T13:57:05.092Z,8.08
2022-11-26T13:58:05.098Z,8.17
2022-11-26T13:59:05.053Z,8.11
2022-11-26T14:00:05.041Z,8.14
2022-11-26T14:01:05.046Z,8.16
2022-11-26T14:02:05.085Z,8.11
2022-11-26T14:03:04.979Z,8.14
2022-11-26T14:04:04.965Z,8.17
2022-11-26T14:05:04.950Z,8.16
2022-11-26T14:06:08.025Z,8.14
2022-11-26T14:07:04.918Z,8.08